createdAt,value
2023-02-23T00:00:34.685Z,76.90
2023-02-23T00:03:14.535Z,76.94
2023-02-23T00:05:43.176Z,77.37
2023-02-23T00:08:11.062Z,77.67
2023-02-23T00:10:39.512Z,77.12
2023-02-23T00:13:07.364Z,77.14
2023-02-23T00:15:36.174Z,76.84
2023-02-23T00:18:04.597Z,77.14
2023-02-23T00:20:32.711Z,76.83
2023-02-23T00:23:00.645Z,77.31
2023-02-23T00:25:31.019Z,77.09
2023-02-23T00:27:59.277Z,76.71
2023-02-23T00:30:27.182Z,76.76
2023-02-23T00:32:55.152Z,77.10
2023-02-23T00:35:25.244Z,76.97
2023-02-23T00:37:53.184Z,76.51
2023-02-23T00:40:22.970Z,76.77
2023-02-23T00:42:52.358Z,76.58
2023-02-23T00:45:21.306Z,76.60
2023-02-23T00:47:49.273Z,76.73
2023-02-23T00:50:18.072Z,76.75
2023-02-23T00:52:47.584Z,76.64
2023-02-23T00:55:15.536Z,76.89
2023-02-23T00:57:43.454Z,77.03
2023-02-23T01:00:21.536Z,76.97
2023-02-23T01:02:49.572Z,77.66
2023-02-23T01:05:17.788Z,77.43
2023-02-23T01:07:46.425Z,77.63
2023-02-23T01:10:20.146Z,77.65
2023-02-23T01:12:51.782Z,77.37
2023-02-23T01:15:21.047Z,76.68
2023-02-23T01:17:49.139Z,77.41
2023-02-23T01:20:18.969Z,78.13
2023-02-23T01:22:51.285Z,78.38
2023-02-23T01:25:19.321Z,78.17
2023-02-23T01:27:47.207Z,77.93
2023-02-23T01:30:15.797Z,77.96
2023-02-23T01:32:45.311Z,78.04
2023-02-23T01:35:13.948Z,77.84
2023-02-23T01:37:43.959Z,78.42
2023-02-23T01:40:29.350Z,78.38
2023-02-23T01:43:13.491Z,78.24
2023-02-23T01:45:44.426Z,78.05
2023-02-23T01:48:20.392Z,78.36
2023-02-23T01:51:08.797Z,78.57
2023-02-23T01:53:48.095Z,78.50
2023-02-23T01:56:23.965Z,78.55
2023-02-23T01:58:57.737Z,78.23
2023-02-23T02:01:25.757Z,77.83
2023-02-23T02:04:02.251Z,77.68
2023-02-23T02:06:31.526Z,78.10
2023-02-23T02:09:16.318Z,78.27
2023-02-23T02:11:46.483Z,78.05
2023-02-23T02:14:23.756Z,77.62
2023-02-23T02:17:07.099Z,77.71
2023-02-23T02:20:36.578Z,78.07
2023-02-23T02:23:43.770Z,78.44
2023-02-23T02:26:51.527Z,78.35
2023-02-23T02:30:13.964Z,78.91
2023-02-23T02:33:26.739Z,78.83
2023-02-23T02:36:50.008Z,79.27
2023-02-23T02:39:44.993Z,78.57
2023-02-23T02:42:35.007Z,79.21
2023-02-23T02:45:22.186Z,79.08
2023-02-23T02:48:10.761Z,78.72
2023-02-23T02:50:58.165Z,78.99
2023-02-23T02:53:35.221Z,78.89
2023-02-23T02:56:06.665Z,79.48
2023-02-23T02:58:39.093Z,79.38
2023-02-23T03:01:33.416Z,79.73
2023-02-23T03:04:38.470Z,79.78
2023-02-23T03:07:50.038Z,79.24
2023-02-23T03:10:55.818Z,79.47
2023-02-23T03:14:02.992Z,78.90
2023-02-23T03:17:03.365Z,79.34
2023-02-23T03:20:04.558Z,79.52
2023-02-23T03:22:59.375Z,79.56
2023-02-23T03:26:04.174Z,79.40
2023-02-23T03:29:09.800Z,79.64
2023-02-23T03:32:08.142Z,79.67
2023-02-23T03:35:01.590Z,79.63
2023-02-23T03:38:30.516Z,79.28
2023-02-23T03:41:19.581Z,79.12
2023-02-23T03:44:17.531Z,79.47
2023-02-23T03:47:06.623Z,79.46
2023-02-23T03:49:58.306Z,79.57
2023-02-23T03:52:58.568Z,79.23
2023-02-23T03:55:52.871Z,79.32
2023-02-23T03:59:02.404Z,80.15
2023-02-23T04:01:51.329Z,80.29
2023-02-23T04:04:41.398Z,79.29
2023-02-23T04:07:29.056Z,79.66
2023-02-23T04:10:15.622Z,79.61
2023-02-23T04:13:10.617Z,79.02
2023-02-23T04:15:46.781Z,79.14
2023-02-23T04:18:23.580Z,79.07
2023-02-23T04:20:52.524Z,79.53
2023-02-23T04:23:22.845Z,79.70
2023-02-23T04:25:52.554Z,79.44
2023-02-23T04:28:21.846Z,79.52
2023-02-23T04:30:52.446Z,79.49
2023-02-23T04:33:22.103Z,79.52
2023-02-23T04:35:52.425Z,80.55
2023-02-23T04:38:22.419Z,79.99
2023-02-23T04:40:51.399Z,80.09
2023-02-23T04:43:19.953Z,79.93
2023-02-23T04:45:47.936Z,79.63
2023-02-23T04:48:21.559Z,79.99
2023-02-23T04:50:53.154Z,80.20
2023-02-23T04:53:21.536Z,80.25
2023-02-23T04:55:49.542Z,80.10
2023-02-23T04:58:17.590Z,80.13
2023-02-23T05:00:45.490Z,79.77
2023-02-23T05:03:13.475Z,80.77
2023-02-23T05:05:41.529Z,80.69
2023-02-23T05:08:10.326Z,80.02
2023-02-23T05:10:40.237Z,80.66
2023-02-23T05:13:08.578Z,80.96
2023-02-23T05:15:38.609Z,81.06
2023-02-23T05:18:08.035Z,80.61
2023-02-23T05:20:35.932Z,81.05
2023-02-23T05:23:04.474Z,80.68
2023-02-23T05:25:33.365Z,80.66
2023-02-23T05:28:01.221Z,80.40
2023-02-23T05:30:29.227Z,80.48
2023-02-23T05:32:57.177Z,80.36
2023-02-23T05:35:25.129Z,80.63
2023-02-23T05:37:53.048Z,81.13
2023-02-23T05:40:20.956Z,80.70
2023-02-23T05:42:48.886Z,80.67
2023-02-23T05:45:16.909Z,80.89
2023-02-23T05:47:44.828Z,80.68
2023-02-23T05:50:12.703Z,80.48
2023-02-23T05:52:41.919Z,81.06
2023-02-23T05:55:15.202Z,81.09
2023-02-23T05:57:43.824Z,81.16
2023-02-23T06:00:15.250Z,81.29
2023-02-23T06:02:43.149Z,81.19
2023-02-23T06:05:13.580Z,80.89
2023-02-23T06:07:43.698Z,81.15
2023-02-23T06:10:12.155Z,81.74
2023-02-23T06:12:40.091Z,81.18
2023-02-23T06:15:08.631Z,80.92
2023-02-23T06:17:36.809Z,81.01
2023-02-23T06:20:07.158Z,81.45
2023-02-23T06:22:37.575Z,81.35
2023-02-23T06:25:08.796Z,81.31
2023-02-23T06:27:39.086Z,81.68
2023-02-23T06:30:08.487Z,82.03
2023-02-23T06:32:36.470Z,82.10
2023-02-23T06:35:07.028Z,81.49
2023-02-23T06:37:36.321Z,82.06
2023-02-23T06:40:05.902Z,81.71
2023-02-23T06:42:35.905Z,81.07
2023-02-23T06:45:04.974Z,80.96
2023-02-23T06:47:33.655Z,80.98
2023-02-23T06:50:03.981Z,81.33
2023-02-23T06:52:32.120Z,81.09
2023-02-23T06:54:59.956Z,81.20
2023-02-23T06:57:27.873Z,81.50
2023-02-23T06:59:55.888Z,80.75
2023-02-23T07:02:23.871Z,80.26
2023-02-23T07:04:51.829Z,80.38
2023-02-23T07:07:19.915Z,80.11
2023-02-23T07:09:47.897Z,80.50
2023-02-23T07:12:15.870Z,80.21
2023-02-23T07:14:43.936Z,80.46
2023-02-23T07:17:12.707Z,80.42
2023-02-23T07:19:40.765Z,80.31
2023-02-23T07:22:08.714Z,79.78
2023-02-23T07:24:37.482Z,80.12
2023-02-23T07:27:05.455Z,79.67
2023-02-23T07:29:33.376Z,80.08
2023-02-23T07:32:01.458Z,79.94
2023-02-23T07:34:29.770Z,79.25
2023-02-23T07:36:57.790Z,79.08
2023-02-23T07:39:25.967Z,78.84
2023-02-23T07:41:54.072Z,79.13
2023-02-23T07:44:22.266Z,78.75
2023-02-23T07:46:50.566Z,78.73
2023-02-23T07:49:18.701Z,78.38
2023-02-23T07:51:47.342Z,77.69
2023-02-23T07:54:15.913Z,77.64
2023-02-23T07:56:44.566Z,77.53
2023-02-23T07:59:12.747Z,77.41
2023-02-23T08:01:40.938Z,77.61
2023-02-23T08:04:09.286Z,76.92
2023-02-23T08:06:37.344Z,76.96
2023-02-23T08:09:07.350Z,76.81
2023-02-23T08:11:35.436Z,76.96
2023-02-23T08:14:03.538Z,77.00
2023-02-23T08:16:33.454Z,76.72
2023-02-23T08:19:01.935Z,76.80
2023-02-23T08:21:31.229Z,76.85
2023-02-23T08:23:59.215Z,76.79
2023-02-23T08:26:27.234Z,76.36
2023-02-23T08:28:55.877Z,75.93
2023-02-23T08:31:25.161Z,76.46
2023-02-23T08:33:53.755Z,75.61
2023-02-23T08:36:22.238Z,75.43
2023-02-23T08:38:50.866Z,75.01
2023-02-23T08:41:19.155Z,75.88
2023-02-23T08:43:48.849Z,75.10
2023-02-23T08:46:18.991Z,74.78
2023-02-23T08:48:47.200Z,75.08
2023-02-23T08:51:15.292Z,74.35
2023-02-23T08:53:45.793Z,74.43
2023-02-23T08:56:15.280Z,74.17
2023-02-23T08:58:44.071Z,73.56
2023-02-23T09:01:22.353Z,74.06
2023-02-23T09:03:50.713Z,73.46
2023-02-23T09:06:23.132Z,73.64
2023-02-23T09:08:54.204Z,73.35
2023-02-23T09:11:24.248Z,73.40
2023-02-23T09:13:52.436Z,73.04
2023-02-23T09:16:20.399Z,72.91
2023-02-23T09:18:48.797Z,72.83
2023-02-23T09:21:21.190Z,72.39
2023-02-23T09:23:51.354Z,72.59
2023-02-23T09:26:20.269Z,72.07
2023-02-23T09:28:49.487Z,71.46
2023-02-23T09:31:22.346Z,71.23
2023-02-23T09:33:53.847Z,71.34
2023-02-23T09:36:26.409Z,71.09
2023-02-23T09:38:57.171Z,70.86
2023-02-23T09:41:50.502Z,70.97
2023-02-23T09:44:29.599Z,70.39
2023-02-23T09:47:51.115Z,70.05
2023-02-23T09:50:30.208Z,69.72
2023-02-23T09:53:10.021Z,69.45
2023-02-23T09:55:42.084Z,69.44
2023-02-23T09:58:24.201Z,69.06
2023-02-23T10:01:09.920Z,68.83
2023-02-23T10:03:53.949Z,68.70
2023-02-23T10:06:22.501Z,68.97
2023-02-23T10:09:19.437Z,68.22
2023-02-23T10:12:13.074Z,67.20
2023-02-23T10:15:06.556Z,67.73
2023-02-23T10:17:44.896Z,67.45
2023-02-23T10:20:50.918Z,67.11
2023-02-23T10:23:28.668Z,67.37
2023-02-23T10:26:02.216Z,67.40
2023-02-23T10:28:36.578Z,66.72
2023-02-23T10:31:26.523Z,66.49
2023-02-23T10:33:58.703Z,66.25
2023-02-23T10:36:36.356Z,66.85
2023-02-23T10:39:08.324Z,66.33
2023-02-23T10:41:37.236Z,65.34
2023-02-23T10:44:16.935Z,65.25
2023-02-23T10:46:50.321Z,65.13
2023-02-23T10:49:23.331Z,65.23
2023-02-23T10:51:52.358Z,64.98
2023-02-23T10:54:44.652Z,64.97
2023-02-23T10:57:39.906Z,65.28
2023-02-23T11:00:18.187Z,65.36
2023-02-23T11:02:47.892Z,65.50
2023-02-23T11:05:34.324Z,65.59
2023-02-23T11:08:39.451Z,65.15
2023-02-23T11:11:16.990Z,65.23
2023-02-23T11:13:50.172Z,64.79
2023-02-23T11:16:22.804Z,64.69
2023-02-23T11:19:04.012Z,64.76
2023-02-23T11:21:35.792Z,64.71
2023-02-23T11:24:32.976Z,64.29
2023-02-23T11:27:06.984Z,63.76
2023-02-23T11:29:43.440Z,63.91
2023-02-23T11:32:22.202Z,64.06
2023-02-23T11:35:22.520Z,65.51
2023-02-23T11:37:50.451Z,65.10
2023-02-23T11:40:26.205Z,65.11
2023-02-23T11:43:09.790Z,64.83
2023-02-23T11:45:50.390Z,65.65
2023-02-23T11:48:34.901Z,66.24
2023-02-23T11:51:03.342Z,65.17
2023-02-23T11:53:40.245Z,64.89
2023-02-23T11:56:10.975Z,65.07
2023-02-23T11:58:44.342Z,65.03
2023-02-23T12:01:16.975Z,64.36
2023-02-23T12:03:51.577Z,64.32
2023-02-23T12:06:46.056Z,64.38
2023-02-23T12:09:34.164Z,63.68
2023-02-23T12:12:13.616Z,62.86
2023-02-23T12:14:53.720Z,62.08
2023-02-23T12:17:27.855Z,61.20
2023-02-23T12:20:02.940Z,62.18
2023-02-23T12:22:42.180Z,62.25
2023-02-23T12:25:28.696Z,62.46
2023-02-23T12:28:19.395Z,61.75
2023-02-23T12:30:59.045Z,62.97
2023-02-23T12:33:55.390Z,61.89
2023-02-23T12:36:47.284Z,62.53
2023-02-23T12:39:31.533Z,63.35
2023-02-23T12:42:43.108Z,63.54
2023-02-23T12:45:55.127Z,62.64
2023-02-23T12:48:54.928Z,61.47
2023-02-23T12:52:02.542Z,62.04
2023-02-23T12:54:32.692Z,62.17
2023-02-23T12:57:33.991Z,62.37
2023-02-23T13:00:33.604Z,61.71
2023-02-23T13:03:36.752Z,62.25
2023-02-23T13:06:30.736Z,62.60
2023-02-23T13:09:30.612Z,62.67
2023-02-23T13:12:12.126Z,62.41
2023-02-23T13:15:18.393Z,61.69
2023-02-23T13:18:39.148Z,62.20
2023-02-23T13:21:26.948Z,61.23
2023-02-23T13:24:29.771Z,61.48
2023-02-23T13:27:43.537Z,62.76
2023-02-23T13:30:12.526Z,63.62
2023-02-23T13:32:40.701Z,62.95
2023-02-23T13:35:16.558Z,62.41
2023-02-23T13:38:35.988Z,61.95
2023-02-23T13:41:22.104Z,61.64
2023-02-23T13:44:00.511Z,61.76
2023-02-23T13:46:46.177Z,61.44
2023-02-23T13:49:42.056Z,60.65
2023-02-23T13:52:42.438Z,61.38
2023-02-23T13:55:51.257Z,60.78
2023-02-23T13:58:28.776Z,59.94
2023-02-23T14:01:20.555Z,59.49
2023-02-23T14:03:59.732Z,60.63
2023-02-23T14:06:34.100Z,60.54
2023-02-23T14:09:23.824Z,60.39
2023-02-23T14:12:19.155Z,60.75
2023-02-23T14:14:47.286Z,62.52
2023-02-23T14:17:15.176Z,61.64
2023-02-23T14:20:06.737Z,62.00
2023-02-23T14:22:34.979Z,61.99
2023-02-23T14:25:38.911Z,61.75
2023-02-23T14:28:34.939Z,62.66
2023-02-23T14:31:20.654Z,62.21
2023-02-23T14:33:59.141Z,63.35
2023-02-23T14:36:33.724Z,63.60
2023-02-23T14:39:09.253Z,64.24
2023-02-23T14:41:59.949Z,64.26
2023-02-23T14:44:31.822Z,64.57
2023-02-23T14:46:59.724Z,64.40
2023-02-23T14:49:31.825Z,64.04
2023-02-23T14:52:08.283Z,64.02
2023-02-23T14:54:39.810Z,63.81
2023-02-23T14:57:22.760Z,64.72
2023-02-23T14:59:59.664Z,65.14
2023-02-23T15:02:30.989Z,64.44
2023-02-23T15:04:59.731Z,63.94
2023-02-23T15:07:38.325Z,63.75
2023-02-23T15:10:38.950Z,64.32
2023-02-23T15:13:33.764Z,64.57
2023-02-23T15:16:09.052Z,65.28
2023-02-23T15:18:40.961Z,64.85
2023-02-23T15:21:17.354Z,64.78
2023-02-23T15:23:51.936Z,64.85
2023-02-23T15:26:31.849Z,65.12
2023-02-23T15:29:19.390Z,64.65
2023-02-23T15:31:52.686Z,65.03
2023-02-23T15:34:30.762Z,64.81
2023-02-23T15:37:03.512Z,65.45
2023-02-23T15:39:53.802Z,65.55
2023-02-23T15:42:32.601Z,66.27
2023-02-23T15:45:04.564Z,66.56
2023-02-23T15:47:37.592Z,66.62
2023-02-23T15:50:34.944Z,66.65
2023-02-23T15:53:22.521Z,66.65
2023-02-23T15:55:51.593Z,67.43
2023-02-23T15:58:56.095Z,67.56
2023-02-23T16:01:30.918Z,68.11
2023-02-23T16:04:14.377Z,68.19
2023-02-23T16:07:18.581Z,68.73
2023-02-23T16:09:53.660Z,69.35
2023-02-23T16:12:35.783Z,68.95
2023-02-23T16:15:22.885Z,68.98
2023-02-23T16:18:05.753Z,69.10
2023-02-23T16:20:41.280Z,69.31
2023-02-23T16:23:33.793Z,69.72
2023-02-23T16:26:41.317Z,69.70
2023-02-23T16:29:17.879Z,69.83
2023-02-23T16:31:55.425Z,70.04
2023-02-23T16:34:44.521Z,69.84
2023-02-23T16:37:22.957Z,70.52
2023-02-23T16:39:51.693Z,70.46
2023-02-23T16:42:41.530Z,70.29
2023-02-23T16:45:16.216Z,70.78
2023-02-23T16:47:49.733Z,70.72
2023-02-23T16:50:24.266Z,70.79
2023-02-23T16:52:53.329Z,70.55
2023-02-23T16:55:26.140Z,70.24
2023-02-23T16:58:02.272Z,70.48
2023-02-23T17:00:33.245Z,70.69
2023-02-23T17:03:06.155Z,70.69
2023-02-23T17:05:34.295Z,70.70
2023-02-23T17:08:02.831Z,71.05
2023-02-23T17:10:34.679Z,70.96
2023-02-23T17:13:14.103Z,71.31
2023-02-23T17:15:56.433Z,71.43
2023-02-23T17:18:29.258Z,71.63
2023-02-23T17:21:01.013Z,71.82
2023-02-23T17:23:50.516Z,71.87
2023-02-23T17:26:25.865Z,72.16
2023-02-23T17:28:54.052Z,72.46
2023-02-23T17:31:24.822Z,72.50
2023-02-23T17:33:55.310Z,72.86
2023-02-23T17:36:23.941Z,72.84
2023-02-23T17:38:58.455Z,73.27
2023-02-23T17:41:27.207Z,73.65
2023-02-23T17:43:55.248Z,73.91
2023-02-23T17:46:24.070Z,74.40
2023-02-23T17:48:53.981Z,74.86
2023-02-23T17:51:23.604Z,75.55
2023-02-23T17:53:52.045Z,76.11
2023-02-23T17:56:20.526Z,76.17
2023-02-23T17:58:50.810Z,76.73
2023-02-23T18:01:19.979Z,76.79
2023-02-23T18:03:49.849Z,77.46
2023-02-23T18:06:17.863Z,78.54
2023-02-23T18:08:45.963Z,78.89
2023-02-23T18:11:18.451Z,78.90
2023-02-23T18:13:48.028Z,78.88
2023-02-23T18:16:17.143Z,79.47
2023-02-23T18:18:48.031Z,79.21
2023-02-23T18:21:22.226Z,79.54
2023-02-23T18:23:51.657Z,79.44
2023-02-23T18:26:23.167Z,79.13
2023-02-23T18:28:51.628Z,79.02
2023-02-23T18:31:24.668Z,81.49
2023-02-23T18:33:53.632Z,81.10
2023-02-23T18:36:31.739Z,79.96
2023-02-23T18:39:08.140Z,78.95
2023-02-23T18:41:36.265Z,78.59
2023-02-23T18:44:09.053Z,78.67
2023-02-23T18:46:37.696Z,79.10
2023-02-23T18:49:06.179Z,80.46
2023-02-23T18:51:38.953Z,82.22
2023-02-23T18:54:13.329Z,83.66
2023-02-23T18:56:41.369Z,84.11
2023-02-23T18:59:10.275Z,84.94
2023-02-23T19:01:47.816Z,85.84
2023-02-23T19:04:16.002Z,86.39
2023-02-23T19:06:47.104Z,86.92
2023-02-23T19:09:19.707Z,86.55
2023-02-23T19:11:48.829Z,86.94
2023-02-23T19:14:19.898Z,87.13
2023-02-23T19:16:49.275Z,87.40
2023-02-23T19:19:18.355Z,87.59
2023-02-23T19:21:46.339Z,87.98
2023-02-23T19:24:14.299Z,88.44
2023-02-23T19:26:43.273Z,88.91
2023-02-23T19:29:11.196Z,89.37
2023-02-23T19:31:39.391Z,89.76
2023-02-23T19:34:08.655Z,90.00
2023-02-23T19:36:36.882Z,90.21
2023-02-23T19:39:10.462Z,90.63
2023-02-23T19:41:40.037Z,90.45
2023-02-23T19:44:08.872Z,90.65
2023-02-23T19:46:37.751Z,90.46
2023-02-23T19:49:06.428Z,90.49
2023-02-23T19:51:35.041Z,91.17
2023-02-23T19:54:04.467Z,91.86
2023-02-23T19:56:32.571Z,92.24
2023-02-23T19:59:03.738Z,92.45
2023-02-23T20:01:31.727Z,92.63
2023-02-23T20:04:06.729Z,92.74
2023-02-23T20:06:44.375Z,92.56
2023-02-23T20:09:14.358Z,92.49
2023-02-23T20:11:42.916Z,92.47
2023-02-23T20:14:12.632Z,92.56
2023-02-23T20:16:41.150Z,92.69
2023-02-23T20:19:11.828Z,92.64
2023-02-23T20:21:42.280Z,92.71
2023-02-23T20:24:12.886Z,92.88
2023-02-23T20:26:41.762Z,92.65
2023-02-23T20:29:18.061Z,92.78
2023-02-23T20:31:51.581Z,93.08
2023-02-23T20:34:24.389Z,93.16
2023-02-23T20:36:55.666Z,93.18
2023-02-23T20:39:24.344Z,93.13
2023-02-23T20:41:56.321Z,93.11
2023-02-23T20:44:25.439Z,93.15
2023-02-23T20:46:53.433Z,93.28
2023-02-23T20:49:22.752Z,93.79
2023-02-23T20:51:51.167Z,94.39
2023-02-23T20:54:20.066Z,94.36
2023-02-23T20:56:59.148Z,94.69
2023-02-23T20:59:30.941Z,94.68
2023-02-23T21:02:02.153Z,94.60
2023-02-23T21:04:30.691Z,94.48
2023-02-23T21:07:00.067Z,94.32
2023-02-23T21:09:31.083Z,93.85
2023-02-23T21:11:59.529Z,94.30
2023-02-23T21:14:27.638Z,94.15
2023-02-23T21:16:55.743Z,93.97
2023-02-23T21:19:24.368Z,94.08
2023-02-23T21:21:58.328Z,94.02
2023-02-23T21:24:26.996Z,94.13
2023-02-23T21:26:55.023Z,94.28
2023-02-23T21:29:24.180Z,94.20
2023-02-23T21:31:52.337Z,94.30
2023-02-23T21:34:20.512Z,94.32
2023-02-23T21:36:49.892Z,94.35
2023-02-23T21:39:17.874Z,94.42
2023-02-23T21:41:45.848Z,94.44
2023-02-23T21:44:13.951Z,94.31
2023-02-23T21:46:41.966Z,94.51
2023-02-23T21:49:10.142Z,94.60
2023-02-23T21:51:39.262Z,94.80
2023-02-23T21:54:07.222Z,94.56
2023-02-23T21:56:36.728Z,94.41
2023-02-23T21:59:08.230Z,94.67
2023-02-23T22:01:40.729Z,94.92
2023-02-23T22:04:14.180Z,95.01
2023-02-23T22:06:44.380Z,95.10
2023-02-23T22:09:15.435Z,95.37
2023-02-23T22:11:47.226Z,95.34
2023-02-23T22:14:17.024Z,95.20
2023-02-23T22:16:46.121Z,95.23
2023-02-23T22:19:14.238Z,95.16
2023-02-23T22:21:44.307Z,95.32
2023-02-23T22:24:14.150Z,95.36
2023-02-23T22:26:57.811Z,95.55
2023-02-23T22:29:26.796Z,95.57
2023-02-23T22:31:55.361Z,95.65
2023-02-23T22:34:23.464Z,95.63
2023-02-23T22:36:51.655Z,95.89
2023-02-23T22:39:20.168Z,96.19
2023-02-23T22:41:48.884Z,95.91
2023-02-23T22:44:21.390Z,96.01
2023-02-23T22:46:49.605Z,95.99
2023-02-23T22:49:19.853Z,96.14
2023-02-23T22:51:48.290Z,96.37
2023-02-23T22:54:17.319Z,96.36
2023-02-23T22:56:46.792Z,96.24
2023-02-23T22:59:17.551Z,96.11
2023-02-23T23:01:47.525Z,96.09
2023-02-23T23:04:16.023Z,96.20
2023-02-23T23:06:44.241Z,96.11
2023-02-23T23:09:12.870Z,96.12
2023-02-23T23:11:41.754Z,95.94
2023-02-23T23:14:14.200Z,95.91
2023-02-23T23:16:47.820Z,95.75
2023-02-23T23:19:26.167Z,95.64
2023-02-23T23:21:55.820Z,95.57
2023-02-23T23:24:24.756Z,95.69
2023-02-23T23:27:00.032Z,95.92
2023-02-23T23:29:32.337Z,95.75
2023-02-23T23:32:02.732Z,95.70
2023-02-23T23:34:34.394Z,95.73
2023-02-23T23:37:02.912Z,95.68
2023-02-23T23:39:31.029Z,95.70
2023-02-23T23:42:01.693Z,95.56
2023-02-23T23:44:29.887Z,95.43
2023-02-23T23:46:58.435Z,95.53
2023-02-23T23:49:26.681Z,95.54
2023-02-23T23:51:56.648Z,95.53
2023-02-23T23:54:31.171Z,95.70
2023-02-23T23:57:05.679Z,95.60
2023-02-23T23:59:35.463Z,95.48
